Aérodrome :
LOGIN :

S'inscrire | Disclaimer

   EN    FR    IT 

 










Légende :    VFR   VFR Marginal   IFR   IFR Intensif   IFR Très Intensif
Visi : 
Plafond : 
>= 8 km
>= 3000ft
5 à 8 km
1000 à 3000 ft
1500m à 5 km
500 à 1000 ft
800 à 1500m
200 à 500 ft
< 800m
< 200 ft
Symboles :   Orages  Brouillard  Fortes neiges  Fortes précipitations  Vent > 20 kt
SIGMETs :   Divers  Orages  Givrage  Turbulence  Onde Orograph.  Cendres Volcan.






- Altitude de l'aérodrome : 348 ft
- Code IATA : LDV


LFRJ - Landivisiau

DERNIER METAR :
  • 031000Z AUTO 31007KT 270V350 CAVOK 20/13 Q1009 NOSIG

METARs EXPIRÉS :
  • 030930Z AUTO 31009KT CAVOK 19/13 Q1009 NOSIG
  • 030900Z AUTO 32007KT 270V340 CAVOK 19/13 Q1009 NOSIG
  • 030830Z AUTO 30004KT 270V330 CAVOK 18/12 Q1010 NOSIG
  • 030800Z AUTO 32006KT 280V350 CAVOK 17/12 Q1010 NOSIG
  • 030730Z AUTO 30005KT 270V330 CAVOK 15/12 Q1010 NOSIG

TAF TAF LFRJ
Valide du 03 à 09h jusqu'au 03 à 18h UTC


030800Z 0309/0318 31006KT CAVOK
TEMPO 0312/0318 34010G25KT SHRA BKN030CB



MET'MAP, la Météo Aéronautique d'un coup d'oeil ! - Copyright ORBIFLY Décembre 2007 - Disclaimer

ORBIFLY MET'MAP TEAM :

Programmation & Développement : Alexandra Zaïnal
Sur une idée originale de : Baudouin d'Aumeries
Assistance à la programmation : Marc-Olivier Méhu
Soutien technique & logistique : Manuel Goepfert

Contact : metmap@orbifly.com




SOURCES & CREDITS :

   NOAA